createdAt,value
2023-04-01T00:00:23.519Z,24.70
2023-04-01T00:02:49.626Z,16.20
2023-04-01T00:05:16.942Z,15.70
2023-04-01T00:07:43.323Z,15.80
2023-04-01T00:10:12.039Z,14.00
2023-04-01T00:12:38.910Z,18.90
2023-04-01T00:15:08.057Z,16.80
2023-04-01T00:17:34.767Z,15.80
2023-04-01T00:20:00.889Z,18.20
2023-04-01T00:22:27.438Z,15.10
2023-04-01T00:24:53.807Z,15.60
2023-04-01T00:27:20.207Z,16.90
2023-04-01T00:29:47.940Z,15.70
2023-04-01T00:32:15.473Z,14.40
2023-04-01T00:34:41.846Z,13.70
2023-04-01T00:37:08.483Z,13.00
2023-04-01T00:39:35.493Z,13.60
2023-04-01T00:42:03.715Z,12.80
2023-04-01T00:44:33.114Z,11.60
2023-04-01T00:47:00.040Z,18.90
2023-04-01T00:49:31.445Z,14.00
2023-04-01T00:52:01.774Z,22.90
2023-04-01T00:54:30.118Z,16.70
2023-04-01T00:57:26.213Z,16.10
2023-04-01T01:02:21.378Z,13.00
2023-04-01T01:04:47.317Z,11.90
2023-04-01T01:07:25.505Z,14.20
2023-04-01T01:10:29.669Z,13.90
2023-04-01T01:13:04.873Z,12.30
2023-04-01T01:15:48.373Z,10.90
2023-04-01T01:18:34.743Z,11.60
2023-04-01T01:21:21.156Z,14.40
2023-04-01T01:24:22.760Z,12.00
2023-04-01T01:27:15.150Z,14.00
2023-04-01T01:30:09.822Z,14.20
2023-04-01T01:32:52.249Z,10.70
2023-04-01T01:35:28.427Z,10.80
2023-04-01T01:38:00.229Z,12.60
2023-04-01T01:40:29.396Z,10.30
2023-04-01T01:43:03.066Z,11.20
2023-04-01T01:45:31.896Z,13.70
2023-04-01T01:47:59.753Z,13.40
2023-04-01T01:50:27.223Z,11.20
2023-04-01T01:53:02.623Z,12.70
2023-04-01T01:55:37.847Z,13.80
2023-04-01T01:58:25.508Z,12.90
2023-04-01T02:00:56.894Z,10.70
2023-04-01T02:03:26.515Z,12.40
2023-04-01T02:05:55.776Z,12.20
2023-04-01T02:08:36.334Z,12.50
2023-04-01T02:11:08.194Z,10.20
2023-04-01T02:14:01.764Z,11.50
2023-04-01T02:16:33.002Z,14.10
2023-04-01T02:19:00.710Z,12.50
2023-04-01T02:21:31.650Z,12.00
2023-04-01T02:24:00.629Z,12.80
2023-04-01T02:26:27.228Z,11.50
2023-04-01T02:28:55.222Z,11.50
2023-04-01T02:31:23.461Z,11.50
2023-04-01T02:33:50.194Z,12.50
2023-04-01T02:36:16.718Z,12.60
2023-04-01T02:38:45.269Z,12.20
2023-04-01T02:41:13.052Z,16.00
2023-04-01T02:43:39.894Z,16.20
2023-04-01T02:46:07.481Z,13.00
2023-04-01T02:48:33.814Z,12.00
2023-04-01T02:50:59.790Z,10.70
2023-04-01T02:53:25.719Z,14.10
2023-04-01T02:55:52.670Z,12.90
2023-04-01T02:58:18.849Z,15.30
2023-04-01T03:00:45.501Z,15.80
2023-04-01T03:03:13.132Z,15.80
2023-04-01T03:05:39.371Z,12.70
2023-04-01T03:08:05.731Z,14.20
2023-04-01T03:10:31.656Z,13.90
2023-04-01T03:12:57.655Z,12.60
2023-04-01T03:15:23.952Z,10.70
2023-04-01T03:17:50.058Z,14.10
2023-04-01T03:20:16.381Z,14.10
2023-04-01T03:22:43.003Z,11.90
2023-04-01T03:25:10.354Z,14.10
2023-04-01T03:27:36.423Z,14.00
2023-04-01T03:32:34.646Z,14.90
2023-04-01T03:35:00.677Z,13.00
2023-04-01T03:37:27.874Z,10.80
2023-04-01T03:39:53.960Z,11.40
2023-04-01T03:44:46.069Z,12.10
2023-04-01T03:47:14.143Z,13.10
2023-04-01T03:49:40.186Z,12.70
2023-04-01T03:54:35.212Z,11.40
2023-04-01T03:57:01.187Z,10.40
2023-04-01T03:59:27.426Z,12.90
2023-04-01T04:01:53.712Z,11.90
2023-04-01T04:04:19.918Z,11.80
2023-04-01T04:06:46.469Z,13.20
2023-04-01T04:11:38.457Z,13.70
2023-04-01T04:16:30.650Z,13.60
2023-04-01T04:18:59.130Z,15.90
2023-04-01T04:21:25.115Z,13.80
2023-04-01T04:23:51.868Z,16.30
2023-04-01T04:26:18.353Z,13.30
2023-04-01T04:28:49.676Z,14.50
2023-04-01T04:31:21.559Z,14.30
2023-04-01T04:33:48.483Z,12.60
2023-04-01T04:36:15.503Z,15.60
2023-04-01T04:38:41.763Z,13.00
2023-04-01T04:41:13.119Z,14.10
2023-04-01T04:43:40.989Z,13.10
2023-04-01T04:46:08.470Z,20.40
2023-04-01T04:48:34.875Z,14.40
2023-04-01T04:51:01.644Z,15.00
2023-04-01T04:53:28.037Z,16.20
2023-04-01T04:55:54.226Z,16.10
2023-04-01T04:58:36.414Z,12.60
2023-04-01T05:01:11.306Z,15.70
2023-04-01T05:03:38.932Z,11.80
2023-04-01T05:06:06.718Z,10.50
2023-04-01T05:08:33.336Z,11.90
2023-04-01T05:11:00.387Z,10.20
2023-04-01T05:13:26.945Z,9.90
2023-04-01T05:18:18.932Z,11.10
2023-04-01T05:20:53.759Z,10.20
2023-04-01T05:23:23.644Z,10.00
2023-04-01T05:25:51.337Z,14.30
2023-04-01T05:28:17.688Z,11.30
2023-04-01T05:30:45.647Z,8.10
2023-04-01T05:33:25.801Z,8.80
2023-04-01T05:38:17.615Z,10.70
2023-04-01T05:40:43.767Z,12.10
2023-04-01T05:43:10.083Z,9.50
2023-04-01T05:45:36.201Z,7.40
2023-04-01T05:50:42.390Z,8.20
2023-04-01T05:53:09.162Z,6.70
2023-04-01T05:55:36.543Z,6.10
2023-04-01T05:58:02.834Z,6.80
2023-04-01T06:00:29.255Z,10.90
2023-04-01T06:02:59.083Z,8.10
2023-04-01T06:05:29.017Z,7.60
2023-04-01T06:08:01.181Z,7.60
2023-04-01T06:10:49.179Z,6.40
2023-04-01T06:14:00.994Z,7.70
2023-04-01T06:16:53.900Z,6.80
2023-04-01T06:19:36.106Z,10.50
2023-04-01T06:22:10.112Z,6.90
2023-04-01T06:24:51.711Z,4.90
2023-04-01T06:30:06.360Z,5.40
2023-04-01T06:33:15.350Z,5.70
2023-04-01T06:36:05.736Z,8.60
2023-04-01T06:39:16.909Z,7.00
2023-04-01T06:42:06.244Z,7.30
2023-04-01T06:45:04.829Z,9.00
2023-04-01T06:48:11.334Z,8.00
2023-04-01T06:51:22.825Z,9.90
2023-04-01T06:54:30.441Z,8.80
2023-04-01T06:57:17.191Z,8.90
2023-04-01T06:59:43.783Z,10.60
2023-04-01T07:02:09.951Z,10.90
2023-04-01T07:04:41.374Z,10.10
2023-04-01T07:07:34.715Z,9.70
2023-04-01T07:10:28.511Z,10.30
2023-04-01T07:13:21.888Z,11.90
2023-04-01T07:16:01.075Z,9.20
2023-04-01T07:18:37.978Z,13.60
2023-04-01T07:21:09.586Z,11.50
2023-04-01T07:23:45.999Z,13.90
2023-04-01T07:26:41.531Z,11.20
2023-04-01T07:29:14.738Z,15.10
2023-04-01T07:32:04.118Z,21.90
2023-04-01T07:35:00.927Z,27.90
2023-04-01T07:37:53.404Z,35.50
2023-04-01T07:40:36.393Z,47.20
2023-04-01T07:43:40.769Z,49.90
2023-04-01T07:46:58.772Z,44.50
2023-04-01T07:49:50.970Z,28.90
2023-04-01T07:52:25.860Z,37.70
2023-04-01T07:55:05.754Z,47.80
2023-04-01T07:57:56.280Z,35.40
2023-04-01T08:00:36.047Z,37.80
2023-04-01T08:03:34.738Z,33.30
2023-04-01T08:06:14.841Z,31.00
2023-04-01T08:09:06.128Z,29.50
2023-04-01T08:12:24.935Z,32.70
2023-04-01T08:15:22.149Z,33.50
2023-04-01T08:18:37.552Z,34.40
2023-04-01T08:21:10.965Z,30.20
2023-04-01T08:23:45.234Z,69.80
2023-04-01T08:26:25.159Z,58.90
2023-04-01T08:28:58.124Z,47.00
2023-04-01T08:31:37.930Z,37.30
2023-04-01T08:34:12.515Z,34.10
2023-04-01T08:36:44.712Z,31.80
2023-04-01T08:39:18.821Z,38.80
2023-04-01T08:42:17.856Z,35.60
2023-04-01T08:45:15.005Z,33.60
2023-04-01T08:48:08.851Z,34.50
2023-04-01T08:50:48.528Z,37.70
2023-04-01T08:53:53.208Z,38.40
2023-04-01T08:56:32.098Z,38.30
2023-04-01T08:59:16.119Z,29.70
2023-04-01T09:01:43.004Z,38.60
2023-04-01T09:04:27.376Z,34.30
2023-04-01T09:07:02.872Z,36.80
2023-04-01T09:09:51.082Z,36.20
2023-04-01T09:12:32.716Z,33.20
2023-04-01T09:15:20.906Z,33.80
2023-04-01T09:18:06.141Z,33.10
2023-04-01T09:20:54.344Z,27.80
2023-04-01T09:23:38.909Z,32.50
2023-04-01T09:26:20.583Z,29.90
2023-04-01T09:29:08.716Z,34.70
2023-04-01T09:31:53.779Z,32.90
2023-04-01T09:34:54.768Z,32.00
2023-04-01T09:37:40.317Z,30.80
2023-04-01T09:40:18.771Z,27.60
2023-04-01T09:43:17.025Z,26.00
2023-04-01T09:45:58.840Z,26.10
2023-04-01T09:49:00.496Z,21.90
2023-04-01T09:51:55.523Z,21.10
2023-04-01T09:54:30.993Z,19.20
2023-04-01T09:57:48.502Z,21.50
2023-04-01T10:01:04.854Z,24.90
2023-04-01T10:04:02.466Z,25.90
2023-04-01T10:07:02.896Z,20.50
2023-04-01T10:09:50.937Z,24.30
2023-04-01T10:12:32.567Z,22.40
2023-04-01T10:15:17.023Z,16.00
2023-04-01T10:18:08.149Z,23.50
2023-04-01T10:20:40.277Z,20.50
2023-04-01T10:23:18.909Z,20.80
2023-04-01T10:26:08.062Z,21.80
2023-04-01T10:28:57.607Z,23.50
2023-04-01T10:31:56.113Z,15.10
2023-04-01T10:34:34.679Z,18.60
2023-04-01T10:37:16.257Z,15.90
2023-04-01T10:40:04.368Z,16.00
2023-04-01T10:43:23.910Z,18.20
2023-04-01T10:46:34.904Z,16.90
2023-04-01T10:49:29.898Z,19.00
2023-04-01T10:52:23.303Z,17.10
2023-04-01T10:55:45.845Z,15.70
2023-04-01T10:58:41.946Z,15.90
2023-04-01T11:01:36.036Z,14.50
2023-04-01T11:08:09.106Z,17.70
2023-04-01T11:10:46.234Z,17.10
2023-04-01T11:13:41.715Z,15.00
2023-04-01T11:16:39.967Z,14.40
2023-04-01T11:19:28.406Z,15.90
2023-04-01T11:22:16.730Z,13.80
2023-04-01T11:25:03.364Z,17.00
2023-04-01T11:28:25.765Z,14.00
2023-04-01T11:31:15.784Z,13.80
2023-04-01T11:33:47.933Z,13.40
2023-04-01T11:36:49.501Z,12.30
2023-04-01T11:39:34.994Z,12.10
2023-04-01T11:42:18.998Z,13.20
2023-04-01T11:45:47.166Z,14.40
2023-04-01T11:48:35.570Z,11.60
2023-04-01T11:51:30.261Z,10.00
2023-04-01T11:54:15.524Z,9.50
2023-04-01T11:56:44.302Z,10.70
2023-04-01T11:59:21.537Z,10.60
2023-04-01T12:02:10.731Z,8.80
2023-04-01T12:05:18.269Z,10.50
2023-04-01T12:10:57.776Z,11.40
2023-04-01T12:13:29.525Z,7.00
2023-04-01T12:16:34.039Z,7.00
2023-04-01T12:19:19.283Z,11.10
2023-04-01T12:22:00.458Z,7.70
2023-04-01T12:24:48.040Z,7.10
2023-04-01T12:27:39.094Z,6.20
2023-04-01T12:30:23.823Z,6.60
2023-04-01T12:33:20.283Z,9.60
2023-04-01T12:36:25.785Z,4.90
2023-04-01T12:38:57.790Z,5.50
2023-04-01T12:41:45.554Z,6.60
2023-04-01T12:44:18.167Z,6.70
2023-04-01T12:46:56.209Z,7.50
2023-04-01T12:50:03.974Z,6.50
2023-04-01T12:52:52.401Z,5.40
2023-04-01T12:55:27.398Z,4.70
2023-04-01T12:58:12.310Z,4.30
2023-04-01T13:01:03.048Z,3.60
2023-04-01T13:03:32.067Z,3.80
2023-04-01T13:06:15.279Z,3.10
2023-04-01T13:08:49.880Z,3.60
2023-04-01T13:11:37.081Z,1.40
2023-04-01T13:14:37.674Z,4.60
2023-04-01T13:17:21.477Z,1.30
2023-04-01T13:20:04.750Z,1.10
2023-04-01T13:22:50.533Z,1.20
2023-04-01T13:25:47.772Z,0.70
2023-04-01T13:28:24.274Z,1.60
2023-04-01T13:31:03.555Z,1.10
2023-04-01T13:33:48.270Z,1.00
2023-04-01T13:36:37.129Z,1.50
2023-04-01T13:39:25.083Z,1.70
2023-04-01T13:42:13.148Z,0.60
2023-04-01T13:45:12.550Z,1.20
2023-04-01T13:47:44.862Z,1.00
2023-04-01T13:50:48.370Z,1.10
2023-04-01T13:53:40.088Z,1.70
2023-04-01T13:56:36.839Z,1.90
2023-04-01T13:59:21.778Z,1.50
2023-04-01T14:01:55.229Z,2.30
2023-04-01T14:04:45.469Z,2.30
2023-04-01T14:07:46.519Z,2.40
2023-04-01T14:10:39.747Z,2.20
2023-04-01T14:13:27.690Z,2.60
2023-04-01T14:16:12.596Z,2.00
2023-04-01T14:19:01.024Z,2.40
2023-04-01T14:21:36.578Z,3.10
2023-04-01T14:24:19.149Z,1.70
2023-04-01T14:27:19.992Z,1.70
2023-04-01T14:30:16.387Z,2.50
2023-04-01T14:32:56.732Z,3.30
2023-04-01T14:35:33.768Z,1.80
2023-04-01T14:38:35.698Z,2.20
2023-04-01T14:41:21.182Z,2.90
2023-04-01T14:44:17.205Z,2.30
2023-04-01T14:47:02.191Z,3.30
2023-04-01T14:49:33.931Z,2.00
2023-04-01T14:54:52.856Z,4.20
2023-04-01T14:57:30.420Z,3.30
2023-04-01T15:02:53.441Z,2.50
2023-04-01T15:05:33.011Z,3.40
2023-04-01T15:08:20.675Z,4.80
2023-04-01T15:10:58.874Z,1.50
2023-04-01T15:13:35.485Z,2.00
2023-04-01T15:16:10.875Z,1.60
2023-04-01T15:18:42.642Z,5.00
2023-04-01T15:24:11.807Z,1.50
2023-04-01T15:26:59.729Z,3.50
2023-04-01T15:29:43.836Z,1.50
2023-04-01T15:32:48.996Z,1.40
2023-04-01T15:35:44.456Z,1.50
2023-04-01T15:38:31.706Z,2.00
2023-04-01T15:41:13.086Z,1.60
2023-04-01T15:43:45.761Z,1.80
2023-04-01T15:46:21.042Z,1.10
2023-04-01T15:48:52.875Z,1.90
2023-04-01T15:51:44.057Z,2.40
2023-04-01T15:54:13.344Z,1.20
2023-04-01T15:56:50.359Z,1.50
2023-04-01T15:59:28.585Z,1.70
2023-04-01T16:02:19.903Z,3.10
2023-04-01T16:04:58.793Z,1.40
2023-04-01T16:07:30.882Z,4.00
2023-04-01T16:10:04.961Z,2.20
2023-04-01T16:13:00.099Z,0.80
2023-04-01T16:15:58.866Z,1.60
2023-04-01T16:18:47.108Z,2.30
2023-04-01T16:21:28.107Z,1.20
2023-04-01T16:23:59.985Z,1.00
2023-04-01T16:26:43.715Z,0.80
2023-04-01T16:31:45.957Z,1.50
2023-04-01T16:34:27.794Z,0.70
2023-04-01T16:37:20.633Z,0.90
2023-04-01T16:40:01.495Z,1.80
2023-04-01T16:42:58.371Z,0.90
2023-04-01T16:45:37.371Z,1.30
2023-04-01T16:48:13.098Z,0.90
2023-04-01T16:51:00.420Z,0.90
2023-04-01T16:53:50.244Z,0.70
2023-04-01T16:56:25.346Z,0.60
2023-04-01T16:59:13.882Z,2.00
2023-04-01T17:01:55.529Z,0.50
2023-04-01T17:04:53.363Z,1.10
2023-04-01T17:07:37.102Z,1.80
2023-04-01T17:12:48.256Z,3.50
2023-04-01T17:15:38.942Z,2.80
2023-04-01T17:18:09.966Z,2.10
2023-04-01T17:20:46.979Z,1.40
2023-04-01T17:23:15.168Z,4.40
2023-04-01T17:26:19.136Z,3.20
2023-04-01T17:28:58.457Z,2.70
2023-04-01T17:31:30.194Z,1.60
2023-04-01T17:37:08.634Z,3.00
2023-04-01T17:40:26.580Z,1.90
2023-04-01T17:43:07.865Z,10.50
2023-04-01T17:45:45.901Z,3.10
2023-04-01T17:48:55.354Z,6.30
2023-04-01T17:51:28.990Z,4.60
2023-04-01T17:54:25.581Z,3.10
2023-04-01T17:57:29.521Z,6.60
2023-04-01T18:00:14.479Z,3.20
2023-04-01T18:02:50.220Z,9.60
2023-04-01T18:05:37.347Z,6.90
2023-04-01T18:08:06.543Z,4.50
2023-04-01T18:10:46.692Z,10.20
2023-04-01T18:13:12.692Z,5.40
2023-04-01T18:15:51.426Z,5.40
2023-04-01T18:18:20.324Z,4.40
2023-04-01T18:21:00.332Z,4.10
2023-04-01T18:23:59.222Z,4.50
2023-04-01T18:26:37.562Z,4.50
2023-04-01T18:29:37.303Z,3.30
2023-04-01T18:32:16.190Z,3.20
2023-04-01T18:34:58.448Z,5.70
2023-04-01T18:37:31.942Z,6.40
2023-04-01T18:40:11.085Z,3.10
2023-04-01T18:42:54.495Z,3.90
2023-04-01T18:45:29.524Z,3.10
2023-04-01T18:48:09.583Z,7.00
2023-04-01T18:50:48.596Z,6.20
2023-04-01T18:53:44.039Z,6.60
2023-04-01T18:56:29.656Z,5.60
2023-04-01T18:59:34.848Z,5.00
2023-04-01T19:02:19.294Z,5.80
2023-04-01T19:04:56.573Z,4.20
2023-04-01T19:07:37.980Z,5.70
2023-04-01T19:10:50.011Z,5.90
2023-04-01T19:13:34.075Z,3.10
2023-04-01T19:16:00.670Z,3.10
2023-04-01T19:18:35.648Z,3.40
2023-04-01T19:21:49.794Z,3.60
2023-04-01T19:24:41.004Z,2.80
2023-04-01T19:27:24.950Z,3.90
2023-04-01T19:30:19.776Z,4.00
2023-04-01T19:33:18.820Z,3.10
2023-04-01T19:35:56.317Z,4.40
2023-04-01T19:38:35.439Z,4.90
2023-04-01T19:41:18.480Z,5.00
2023-04-01T19:43:50.491Z,3.70
2023-04-01T19:46:29.040Z,4.80
2023-04-01T19:49:23.287Z,4.20
2023-04-01T19:52:07.823Z,4.10
2023-04-01T19:55:01.810Z,4.80
2023-04-01T19:57:46.351Z,3.80
2023-04-01T20:00:28.368Z,4.10
2023-04-01T20:03:03.829Z,6.10
2023-04-01T20:05:47.876Z,7.60
2023-04-01T20:08:43.156Z,4.80
2023-04-01T20:11:27.402Z,4.50
2023-04-01T20:13:59.552Z,4.50
2023-04-01T20:16:52.505Z,3.30
2023-04-01T20:19:43.035Z,4.40
2023-04-01T20:22:35.596Z,3.70
2023-04-01T20:25:27.345Z,4.10
2023-04-01T20:28:02.692Z,3.70
2023-04-01T20:30:48.822Z,3.70
2023-04-01T20:33:34.252Z,5.70
2023-04-01T20:36:15.623Z,4.60
2023-04-01T20:39:14.379Z,3.90
2023-04-01T20:41:52.327Z,6.60
2023-04-01T20:44:33.708Z,9.50
2023-04-01T20:47:34.889Z,8.50
2023-04-01T20:50:33.226Z,8.60
2023-04-01T20:53:15.832Z,7.00
2023-04-01T20:55:48.152Z,8.70
2023-04-01T20:58:46.824Z,8.30
2023-04-01T21:01:32.261Z,9.80
2023-04-01T21:04:13.594Z,8.90
2023-04-01T21:07:00.538Z,9.70
2023-04-01T21:09:49.485Z,14.00
2023-04-01T21:12:31.237Z,14.20
2023-04-01T21:15:21.768Z,16.10
2023-04-01T21:18:02.825Z,16.60
2023-04-01T21:20:47.734Z,17.60
2023-04-01T21:23:32.648Z,18.60
2023-04-01T21:26:18.779Z,19.50
2023-04-01T21:28:57.111Z,20.60
2023-04-01T21:31:56.335Z,23.10
2023-04-01T21:34:28.385Z,20.50
2023-04-01T21:37:13.311Z,28.50
2023-04-01T21:39:59.724Z,19.20
2023-04-01T21:42:55.442Z,23.70
2023-04-01T21:45:48.739Z,19.10
2023-04-01T21:48:52.602Z,20.90
2023-04-01T21:51:43.413Z,23.50
2023-04-01T21:54:48.310Z,20.20
2023-04-01T21:57:14.237Z,20.90
2023-04-01T22:00:16.480Z,23.00
2023-04-01T22:02:57.873Z,17.80
2023-04-01T22:05:52.084Z,20.50
2023-04-01T22:08:41.272Z,24.70
2023-04-01T22:11:36.618Z,21.20
2023-04-01T22:14:07.795Z,22.40
2023-04-01T22:16:54.521Z,22.30
2023-04-01T22:19:30.563Z,22.80
2023-04-01T22:22:01.697Z,22.20
2023-04-01T22:24:49.444Z,21.50
2023-04-01T22:27:25.482Z,20.30
2023-04-01T22:30:10.716Z,20.50
2023-04-01T22:32:45.435Z,21.80
2023-04-01T22:35:31.765Z,22.10
2023-04-01T22:38:12.107Z,20.90
2023-04-01T22:41:05.159Z,22.60
2023-04-01T22:43:40.167Z,20.30
2023-04-01T22:46:11.512Z,18.30
2023-04-01T22:48:44.660Z,18.50
2023-04-01T22:51:23.328Z,17.40
2023-04-01T22:53:49.245Z,13.90
2023-04-01T22:59:17.188Z,14.80
2023-04-01T23:02:01.305Z,14.30
2023-04-01T23:04:32.851Z,14.20
2023-04-01T23:07:04.314Z,15.20
2023-04-01T23:09:33.876Z,13.40
2023-04-01T23:12:05.633Z,15.10
2023-04-01T23:14:41.051Z,14.60
2023-04-01T23:17:12.858Z,13.80
2023-04-01T23:20:06.221Z,17.70
2023-04-01T23:23:17.263Z,18.20
2023-04-01T23:26:05.474Z,16.50
2023-04-01T23:28:53.434Z,16.90
2023-04-01T23:31:30.367Z,15.00
2023-04-01T23:34:00.156Z,17.10
2023-04-01T23:36:27.071Z,16.10
2023-04-01T23:38:54.593Z,14.60
2023-04-01T23:41:24.971Z,16.00
2023-04-01T23:44:09.253Z,15.80
2023-04-01T23:46:36.722Z,15.10
2023-04-01T23:49:04.149Z,13.50
2023-04-01T23:51:39.151Z,14.00
2023-04-01T23:54:19.261Z,14.10
2023-04-01T23:56:54.350Z,14.30
2023-04-01T23:59:38.920Z,15.50
